St. Thomas, Canada
Current Conditions -  °F | °C
As of 4:00 PM on Friday 24 Oct 2014 (Local Time) from CYXU Reporting Station
Few Clouds Few Clouds  
Wind Chill: 61°   Ceiling: Unl
Heat Index: 61°   Visibility: 15mi
Dew Point: 39°   Wind: 7mph
Humidity: 45%   Direction: 270°W
Pressure: 29.97"   Gusts: NA
Location:  42.78°N, 81.19°W
Report Text: CYXU 242000Z 27006KT 230V300 15SM FEW050 FEW260 16/04 A2997 RMK SC1CI2 SC TR SLP152 DENSITY ALT 1100FT
Loading
Personal Weather Stations






























Interactive Weather Map
Tropical Storm Tracking
New forecast layout! Learn more

10-Day Weather Forecast

Advertisements
Track Severe Weather on mobile